Time;durP1;ratioP1;P1;durP2;ratioP2;P2;SDS_P1;SDS_P2;PMS_P1;PMS_P2;Temp;Humidity;BMP_temperature;BMP_pressure;BME280_temperature;BME280_humidity;BME280_pressure;Samples;Min_cycle;Max_cycle;Signal;HPM_P1;HPM_P2
2022/01/15 00:00:38;;;;;;;26.65;10.45;;;;;;;3.30;61.83;100709.28;5092804;28;20107;-75
2022/01/15 00:03:06;;;;;;;30.42;12.98;;;;;;;3.29;61.67;100708.41;5088987;28;20079;-80
2022/01/15 00:05:36;;;;;;;19.55;9.25;;;;;;;3.30;61.83;100709.28;5088100;28;20044;-70
2022/01/15 00:08:04;;;;;;;22.00;10.75;;;;;;;3.31;61.61;100705.75;5088545;28;20406;-74
2022/01/15 00:10:31;;;;;;;21.73;10.32;;;;;;;3.23;61.74;100704.25;5088505;28;20094;-79
2022/01/15 00:13:00;;;;;;;23.52;10.30;;;;;;;3.22;61.78;100718.22;5091628;28;20044;-80
2022/01/15 00:15:31;;;;;;;19.90;8.35;;;;;;;3.29;61.50;100707.56;5089234;28;20127;-69
2022/01/15 00:18:01;;;;;;;19.95;7.78;;;;;;;3.25;61.79;100702.44;5092147;28;20098;-76
2022/01/15 00:20:30;;;;;;;20.35;7.47;;;;;;;3.24;61.83;100716.41;5093634;28;20075;-81
2022/01/15 00:23:01;;;;;;;19.58;9.23;;;;;;;3.24;61.73;100708.56;5109914;28;20079;-68
2022/01/15 00:25:30;;;;;;;23.95;8.55;;;;;;;3.27;61.68;100719.81;5112657;28;20213;-78
2022/01/15 00:27:58;;;;;;;22.92;9.48;;;;;;;3.22;61.92;100717.34;5112221;28;20631;-81
2022/01/15 00:30:26;;;;;;;24.55;11.38;;;;;;;3.17;62.03;100714.03;5112057;28;20115;-79
2022/01/15 00:32:53;;;;;;;26.45;10.88;;;;;;;3.20;61.89;100724.38;5113343;28;20157;-71
2022/01/15 00:35:23;;;;;;;23.00;10.82;;;;;;;3.17;61.92;100717.53;5114645;28;20047;-72
2022/01/15 00:37:51;;;;;;;27.23;8.63;;;;;;;3.21;61.80;100716.50;5112121;28;20117;-80
2022/01/15 00:40:21;;;;;;;29.63;9.20;;;;;;;3.21;61.71;100720.88;5116316;28;20130;-75
2022/01/15 00:42:49;;;;;;;30.95;9.75;;;;;;;3.18;61.97;100721.81;5120527;28;20075;-69
2022/01/15 00:45:20;;;;;;;25.88;8.88;;;;;;;3.19;61.62;100722.69;5119012;28;20075;-73
2022/01/15 00:47:47;;;;;;;22.58;8.50;;;;;;;3.19;61.75;100725.31;5120203;28;20051;-74
2022/01/15 00:50:14;;;;;;;29.85;9.57;;;;;;;3.07;62.00;100729.19;5119703;28;20047;-75
2022/01/15 00:52:42;;;;;;;19.75;8.73;;;;;;;3.07;61.84;100723.97;5117733;28;20057;-69
2022/01/15 00:55:11;;;;;;;22.90;7.85;;;;;;;3.13;61.78;100728.94;5116017;28;20464;-69
2022/01/15 00:57:40;;;;;;;19.15;9.25;;;;;;;3.12;61.94;100716.81;5110650;28;20122;-73
2022/01/15 01:00:10;;;;;;;20.42;6.78;;;;;;;3.10;61.80;100721.25;5112911;28;20043;-74
2022/01/15 01:02:37;;;;;;;22.48;9.02;;;;;;;3.08;61.94;100725.66;5118789;28;20075;-70
2022/01/15 01:05:04;;;;;;;23.40;7.25;;;;;;;3.02;62.29;100726.69;5108217;28;20074;-79
2022/01/15 01:07:31;;;;;;;25.58;8.02;;;;;;;3.00;62.19;100738.13;5116245;28;20047;-81
2022/01/15 01:10:12;;;;;;;20.75;7.93;;;;;;;3.00;62.13;100731.13;5109048;28;20509;-69
2022/01/15 01:13:07;;;;;;;26.98;8.77;;;;;;;3.00;62.31;100732.91;5110749;28;20055;-74
2022/01/15 01:21:23;;;;;;;28.45;8.95;;;;;;;2.98;62.17;100737.31;5109234;28;20058;-76
2022/01/15 01:23:49;;;;;;;23.67;8.60;;;;;;;2.88;62.46;100736.75;5108704;28;20040;-74
2022/01/15 01:26:26;;;;;;;21.15;7.80;;;;;;;2.90;62.52;100734.09;5108121;28;20051;-71
2022/01/15 01:29:08;;;;;;;24.38;7.47;;;;;;;2.92;62.28;100735.78;5108491;28;20060;-70
2022/01/15 01:31:39;;;;;;;17.25;7.57;;;;;;;2.92;62.30;100745.31;5108424;28;20046;-72
2022/01/15 01:34:09;;;;;;;19.80;8.95;;;;;;;2.85;62.46;100740.31;5108860;28;20043;-68
2022/01/15 01:36:44;;;;;;;24.08;7.88;;;;;;;2.87;62.47;100746.34;5109751;28;20044;-75
2022/01/15 01:39:17;;;;;;;20.98;7.40;;;;;;;2.85;62.44;100744.69;5108249;28;20046;-70
2022/01/15 01:41:53;;;;;;;26.88;9.98;;;;;;;2.83;62.60;100738.69;5108028;28;20055;-72
2022/01/15 01:44:25;;;;;;;21.65;9.07;;;;;;;2.80;62.56;100729.19;5108737;28;20198;-74
2022/01/15 01:47:02;;;;;;;28.30;8.57;;;;;;;2.81;62.62;100730.03;5109784;28;20039;-75
2022/01/15 01:49:29;;;;;;;19.77;8.10;;;;;;;2.75;62.95;100723.25;5107871;28;20058;-78
2022/01/15 01:51:57;;;;;;;23.55;8.77;;;;;;;2.78;62.83;100727.53;5108598;28;20139;-70
2022/01/15 01:54:24;;;;;;;28.30;8.77;;;;;;;2.69;62.94;100726.06;5106710;28;20039;-74
2022/01/15 01:56:51;;;;;;;23.90;8.00;;;;;;;2.73;62.94;100725.06;5107803;28;20048;-72
2022/01/15 01:59:18;;;;;;;25.05;7.78;;;;;;;2.73;63.15;100725.06;5108414;28;20040;-69
2022/01/15 02:01:47;;;;;;;21.60;8.65;;;;;;;2.73;63.07;100727.69;5108168;28;20050;-75
2022/01/15 02:04:14;;;;;;;27.33;6.70;;;;;;;2.71;63.05;100729.47;5108390;28;20130;-74
2022/01/15 02:06:41;;;;;;;24.77;8.18;;;;;;;2.66;63.17;100723.56;5109281;28;20388;-78
2022/01/15 02:09:09;;;;;;;18.60;8.63;;;;;;;2.65;63.16;100729.69;5110063;28;20127;-71
2022/01/15 02:11:38;;;;;;;22.45;6.65;;;;;;;2.67;62.98;100730.50;5109745;28;20131;-67
2022/01/15 02:14:05;;;;;;;24.30;9.00;;;;;;;2.61;63.07;100730.66;5114225;28;20043;-70
2022/01/15 02:16:32;;;;;;;24.40;8.80;;;;;;;2.62;63.24;100732.38;5118861;28;20119;-73
2022/01/15 02:19:01;;;;;;;23.88;8.20;;;;;;;2.64;63.06;100739.25;5117138;28;20123;-76
2022/01/15 02:24:14;;;;;;;20.13;8.43;;;;;;;2.62;63.00;100737.59;5111856;28;20074;-76
2022/01/15 02:26:43;;;;;;;19.90;8.70;;;;;;;2.63;62.79;100736.72;5118942;28;20130;-76
2022/01/15 02:29:12;;;;;;;35.08;7.40;;;;;;;2.61;62.99;100735.88;5122774;28;20071;-69
2022/01/15 02:31:39;;;;;;;24.60;9.52;;;;;;;2.59;63.18;100737.69;5122177;28;20040;-69
2022/01/15 02:34:07;;;;;;;23.42;8.48;;;;;;;2.62;63.13;100741.06;5121972;28;20040;-69
2022/01/15 02:36:37;;;;;;;26.63;9.07;;;;;;;2.59;63.05;100735.09;5121415;28;20089;-76
2022/01/15 02:39:05;;;;;;;24.55;8.98;;;;;;;2.55;63.08;100736.94;5119450;28;20062;-69
2022/01/15 02:41:34;;;;;;;31.70;9.88;;;;;;;2.55;63.20;100742.16;5121319;28;20039;-76
2022/01/15 02:44:03;;;;;;;21.70;7.65;;;;;;;2.54;63.18;100742.19;5121611;28;20062;-78
2022/01/15 02:48:00;;;;;;;18.85;7.68;;;;;;;2.53;63.05;100737.91;5120603;28;20044;-74
2022/01/15 02:49:24;;;;;;;21.65;8.32;;;;;;;2.57;63.02;100744.72;5119024;28;20051;-74
2022/01/15 02:51:52;;;;;;;19.67;7.88;;;;;;;2.55;62.91;100741.31;5115016;28;20044;-77
2022/01/15 02:54:19;;;;;;;17.73;8.45;;;;;;;2.48;62.92;100738.03;5111067;28;20050;-74
2022/01/15 02:56:46;;;;;;;20.52;7.57;;;;;;;2.47;62.75;100738.94;5110815;28;20040;-74
2022/01/15 02:59:17;;;;;;;24.38;8.80;;;;;;;2.54;62.80;100739.59;5110767;28;20047;-68
2022/01/15 03:01:45;;;;;;;21.70;7.28;;;;;;;2.52;62.86;100744.88;5109889;28;20146;-75
2022/01/15 03:04:13;;;;;;;24.50;5.95;;;;;;;2.48;62.77;100748.47;5110205;28;20051;-72
2022/01/15 03:06:40;;;;;;;19.73;7.10;;;;;;;2.48;62.77;100754.56;5109854;28;20516;-79
2022/01/15 03:09:08;;;;;;;27.98;7.97;;;;;;;2.46;62.89;100752.88;5111165;28;20048;-80
2022/01/15 03:11:36;;;;;;;22.63;9.95;;;;;;;2.49;62.48;100743.19;5111546;28;20143;-72
2022/01/15 03:14:03;;;;;;;23.25;6.65;;;;;;;2.43;62.76;100747.75;5111390;28;20049;-80
2022/01/15 03:16:30;;;;;;;18.85;7.47;;;;;;;2.45;62.71;100741.59;5110920;28;20131;-68
2022/01/15 03:18:57;;;;;;;18.45;6.28;;;;;;;2.43;62.66;100738.19;5113324;28;20181;-75
2022/01/15 03:21:24;;;;;;;20.63;5.88;;;;;;;2.45;62.64;100739.00;5109272;28;20043;-71
2022/01/15 03:23:51;;;;;;;22.05;7.22;;;;;;;2.40;62.64;100725.25;5109723;28;20043;-81
2022/01/15 03:26:20;;;;;;;16.73;7.57;;;;;;;2.41;62.48;100740.00;5111850;28;20131;-80
2022/01/15 03:28:47;;;;;;;16.13;6.07;;;;;;;2.37;62.64;100743.56;5110495;28;20127;-86
2022/01/15 03:31:15;;;;;;;19.92;6.53;;;;;;;2.40;62.55;100742.66;5112921;28;20075;-72
2022/01/15 03:33:42;;;;;;;18.15;7.30;;;;;;;2.42;62.39;100741.69;5109177;28;20052;-69
2022/01/15 03:36:09;;;;;;;25.60;8.13;;;;;;;2.37;62.73;100737.53;5118266;28;20171;-74
2022/01/15 03:38:36;;;;;;;29.98;7.72;;;;;;;2.36;62.54;100754.91;5112099;28;20059;-69
2022/01/15 03:41:03;;;;;;;25.15;8.02;;;;;;;2.34;62.67;100754.13;5112705;27;20269;-86
2022/01/15 03:43:32;;;;;;;25.20;8.65;;;;;;;2.35;62.81;100752.34;5114625;28;20048;-67
2022/01/15 03:45:59;;;;;;;14.50;5.22;;;;;;;2.40;62.45;100761.75;5122805;28;20507;-70
2022/01/15 03:48:27;;;;;;;24.45;7.50;;;;;;;2.32;62.55;100757.66;5116773;28;20054;-80
2022/01/15 03:50:55;;;;;;;25.83;8.98;;;;;;;2.35;62.56;100754.97;5109852;28;20613;-71
2022/01/15 03:53:23;;;;;;;14.60;4.80;;;;;;;2.34;62.47;100755.84;5094847;28;20476;-69
2022/01/15 03:55:51;;;;;;;14.75;6.35;;;;;;;2.32;62.27;100757.66;5093981;28;20047;-72
2022/01/15 03:58:18;;;;;;;20.60;6.80;;;;;;;2.29;62.59;100751.63;5096160;28;20647;-82
2022/01/15 04:00:46;;;;;;;15.30;6.82;;;;;;;2.38;61.99;100755.72;5089966;28;20070;-82
2022/01/15 04:03:13;;;;;;;15.02;6.45;;;;;;;2.35;62.08;100750.59;5090806;28;20056;-74
2022/01/15 04:05:40;;;;;;;15.48;5.60;;;;;;;2.36;62.08;100747.09;5091077;28;20044;-84
2022/01/15 04:08:08;;;;;;;29.77;6.65;;;;;;;2.34;62.02;100743.69;5091284;28;20040;-81
2022/01/15 04:10:35;;;;;;;18.33;6.40;;;;;;;2.33;62.03;100757.63;5092331;28;20044;-80
2022/01/15 04:13:03;;;;;;;19.27;8.02;;;;;;;2.32;62.08;100768.94;5091777;28;20075;-72
2022/01/15 04:15:30;;;;;;;19.58;6.95;;;;;;;2.31;61.90;100759.41;5100161;28;20407;-69
2022/01/15 04:17:58;;;;;;;21.08;6.32;;;;;;;2.32;62.20;100762.88;5090731;28;20048;-83
2022/01/15 04:20:25;;;;;;;18.55;6.38;;;;;;;2.32;61.94;100771.53;5091087;28;20075;-73
2022/01/15 04:22:53;;;;;;;19.27;7.25;;;;;;;2.30;61.99;100778.56;5093473;28;20083;-68
2022/01/15 04:25:21;;;;;;;24.50;6.53;;;;;;;2.31;62.05;100777.66;5089413;28;20411;-69
2022/01/15 04:27:48;;;;;;;21.95;7.95;;;;;;;2.32;61.81;100776.75;5090618;28;20055;-79
2022/01/15 04:30:17;;;;;;;18.98;6.47;;;;;;;2.27;62.07;100771.69;5089162;28;20436;-71
2022/01/15 04:32:44;;;;;;;20.95;6.57;;;;;;;2.22;62.33;100783.16;5088099;28;20201;-76
2022/01/15 04:35:13;;;;;;;19.80;8.00;;;;;;;2.20;62.41;100787.56;5090028;28;20052;-77
2022/01/15 04:37:43;;;;;;;23.90;7.18;;;;;;;2.26;62.18;100787.38;5089595;28;20658;-74
2022/01/15 04:40:12;;;;;;;18.15;6.78;;;;;;;2.22;62.29;100802.25;5088362;28;20437;-82
2022/01/15 04:42:39;;;;;;;22.20;6.78;;;;;;;2.18;62.29;100794.53;5090403;28;20043;-70
2022/01/15 04:45:07;;;;;;;19.50;6.25;;;;;;;2.15;62.27;100792.03;5090015;28;20044;-71
2022/01/15 04:47:35;;;;;;;22.27;8.18;;;;;;;2.13;62.39;100797.31;5090106;28;20492;-73
2022/01/15 04:50:03;;;;;;;20.45;6.53;;;;;;;2.10;62.56;100811.25;5094309;28;20055;-73
2022/01/15 04:52:33;;;;;;;17.33;7.45;;;;;;;2.12;62.85;100802.56;5100772;28;20050;-70
2022/01/15 04:55:02;;;;;;;25.33;9.90;;;;;;;2.14;62.73;100803.34;5111180;28;20455;-70
2022/01/15 04:57:31;;;;;;;17.95;6.70;;;;;;;2.10;62.69;100807.81;5108122;28;20139;-73
2022/01/15 04:59:58;;;;;;;21.23;6.30;;;;;;;2.10;62.63;100798.22;5106693;28;20083;-71
2022/01/15 05:02:26;;;;;;;16.30;5.40;;;;;;;2.08;63.07;100802.63;5110062;28;20048;-77
2022/01/15 05:04:54;;;;;;;25.83;8.45;;;;;;;2.10;63.01;100806.03;5106765;28;20147;-74
2022/01/15 05:07:21;;;;;;;18.90;8.65;;;;;;;2.03;63.20;100799.28;5106103;28;20130;-71
2022/01/15 05:09:50;;;;;;;20.45;6.00;;;;;;;2.03;63.34;100808.88;5108529;28;20063;-71
2022/01/15 05:12:28;;;;;;;33.50;9.90;;;;;;;2.00;63.27;100802.00;5108572;28;20055;-75
2022/01/15 05:14:56;;;;;;;23.13;10.20;;;;;;;2.01;63.36;100814.13;5110262;28;20044;-79
2022/01/15 05:17:24;;;;;;;19.58;7.90;;;;;;;1.98;63.78;100813.34;5109761;28;20154;-76
2022/01/15 05:19:51;;;;;;;17.50;6.57;;;;;;;2.00;63.80;100812.44;5107441;28;20043;-70
2022/01/15 05:22:21;;;;;;;25.02;7.90;;;;;;;1.96;63.83;100818.59;5106505;28;20040;-75
2022/01/15 05:24:49;;;;;;;20.85;8.15;;;;;;;1.95;63.97;100803.88;5105571;28;20046;-68
2022/01/15 05:27:17;;;;;;;25.25;7.43;;;;;;;1.97;63.94;100811.66;5109674;28;20459;-78
2022/01/15 05:29:44;;;;;;;24.80;9.95;;;;;;;1.91;64.22;100812.69;5110389;28;20073;-73
2022/01/15 05:32:11;;;;;;;25.45;8.98;;;;;;;1.86;64.20;100815.41;5109859;28;20054;-76
2022/01/15 05:34:38;;;;;;;27.80;8.40;;;;;;;1.85;64.57;100813.69;5110906;28;20043;-71
2022/01/15 05:37:05;;;;;;;24.05;8.18;;;;;;;1.85;64.74;100818.91;5107810;28;20145;-70
2022/01/15 05:39:32;;;;;;;24.88;8.88;;;;;;;1.86;64.53;100819.78;5107304;28;20138;-75
2022/01/15 05:42:00;;;;;;;22.80;10.18;;;;;;;1.83;65.00;100825.91;5106051;28;20045;-74
2022/01/15 05:44:27;;;;;;;27.00;11.43;;;;;;;1.82;65.12;100829.44;5106199;28;20143;-75
2022/01/15 05:46:54;;;;;;;33.10;11.63;;;;;;;1.77;65.31;100828.69;5106604;28;20134;-69
2022/01/15 05:49:21;;;;;;;22.52;10.45;;;;;;;1.77;65.15;100836.50;5105825;28;20050;-75
2022/01/15 05:51:48;;;;;;;24.23;9.60;;;;;;;1.82;65.21;100833.75;5106509;28;20050;-70
2022/01/15 05:54:15;;;;;;;26.70;9.48;;;;;;;1.72;65.25;100828.78;5105721;28;20063;-74
2022/01/15 05:56:45;;;;;;;28.25;12.32;;;;;;;1.75;65.38;100832.22;5107305;28;20670;-73
2022/01/15 05:59:13;;;;;;;25.92;12.38;;;;;;;1.73;65.63;100840.09;5075050;28;20091;-71
2022/01/15 06:01:40;;;;;;;30.90;11.32;;;;;;;1.67;65.66;100837.63;5110284;28;20149;-71
2022/01/15 06:04:07;;;;;;;31.35;12.20;;;;;;;1.67;65.69;100843.69;5111337;28;20044;-71
2022/01/15 06:06:34;;;;;;;33.70;9.68;;;;;;;1.66;65.75;100842.00;5112530;28;20138;-71
2022/01/15 06:09:02;;;;;;;41.33;12.77;;;;;;;1.62;66.03;100845.56;5110728;28;20047;-77
2022/01/15 06:11:30;;;;;;;22.73;10.98;;;;;;;1.63;66.03;100854.25;5109703;28;20091;-69
2022/01/15 06:13:57;;;;;;;30.55;9.10;;;;;;;1.64;66.00;100862.00;5112268;28;20134;-74
2022/01/15 06:16:26;;;;;;;32.75;11.38;;;;;;;1.63;66.06;100865.50;5110361;28;20321;-69
2022/01/15 06:18:53;;;;;;;26.88;10.35;;;;;;;1.60;66.21;100864.72;5111603;28;20051;-70
2022/01/15 06:21:21;;;;;;;21.65;7.40;;;;;;;1.62;66.12;100862.94;5110222;28;20178;-69
2022/01/15 06:23:48;;;;;;;27.77;11.38;;;;;;;1.58;66.16;100863.91;5108042;28;20044;-71
2022/01/15 06:26:15;;;;;;;34.85;8.82;;;;;;;1.65;66.13;100868.06;5110439;28;20044;-71
2022/01/15 06:28:42;;;;;;;35.03;10.35;;;;;;;1.64;66.05;100864.63;5110196;28;20144;-70
2022/01/15 06:31:09;;;;;;;31.30;11.65;;;;;;;1.56;66.58;100857.88;5108983;28;20050;-75
2022/01/15 06:33:37;;;;;;;25.85;10.30;;;;;;;1.65;66.44;100861.09;5108537;28;20103;-73
2022/01/15 06:36:05;;;;;;;36.03;12.75;;;;;;;1.56;66.55;100865.69;5108449;28;20050;-69
2022/01/15 06:38:32;;;;;;;26.48;10.15;;;;;;;1.58;66.38;100864.75;5107471;28;20052;-72
2022/01/15 06:40:58;;;;;;;35.03;13.13;;;;;;;1.59;66.46;100869.09;5108535;28;20252;-71
2022/01/15 06:43:27;;;;;;;29.55;9.25;;;;;;;1.58;66.65;100867.34;5107637;28;20123;-73
2022/01/15 06:45:56;;;;;;;25.80;11.77;;;;;;;1.55;66.49;100867.47;5108484;28;20051;-70
2022/01/15 06:48:24;;;;;;;33.95;10.02;;;;;;;1.62;66.25;100869.00;5107248;28;20044;-74
2022/01/15 06:50:53;;;;;;;28.88;12.43;;;;;;;1.58;66.39;100864.75;5106517;28;20622;-73
2022/01/15 06:53:20;;;;;;;21.98;10.75;;;;;;;1.55;66.47;100866.59;5070048;28;20159;-76
2022/01/15 06:55:51;;;;;;;29.02;11.23;;;;;;;1.52;66.48;100865.78;5112031;28;20058;-74
2022/01/15 06:58:18;;;;;;;27.35;11.00;;;;;;;1.59;66.63;100868.22;5111225;28;20051;-76
2022/01/15 07:00:45;;;;;;;36.33;10.70;;;;;;;1.56;66.54;100869.16;5110257;28;20551;-73
2022/01/15 07:03:12;;;;;;;30.55;10.90;;;;;;;1.51;66.87;100866.69;5108171;28;20050;-72
2022/01/15 07:05:39;;;;;;;23.10;11.77;;;;;;;1.53;66.73;100869.22;5107547;28;20047;-72
2022/01/15 07:08:08;;;;;;;24.83;8.45;;;;;;;1.61;66.62;100879.47;5110137;28;20048;-80
2022/01/15 07:10:38;;;;;;;34.15;12.80;;;;;;;1.54;66.90;100868.34;5109761;28;20275;-75
2022/01/15 07:13:05;;;;;;;36.10;11.82;;;;;;;1.59;66.66;100879.50;5115429;28;20059;-71
2022/01/15 07:15:33;;;;;;;26.00;10.65;;;;;;;1.61;66.57;100875.09;5117834;28;20075;-75
2022/01/15 07:18:01;;;;;;;37.50;14.20;;;;;;;1.58;66.49;100871.72;5111921;28;20040;-79
2022/01/15 07:20:28;;;;;;;32.13;12.27;;;;;;;1.66;66.56;100877.59;5111372;28;20756;-81
2022/01/15 07:22:56;;;;;;;31.17;12.93;;;;;;;1.60;66.63;100880.34;5118102;28;20306;-73
2022/01/15 07:25:24;;;;;;;36.33;13.88;;;;;;;1.59;66.92;100879.50;5111515;27;20073;-73
2022/01/15 07:27:53;;;;;;;26.67;11.88;;;;;;;1.68;66.69;100886.22;5115803;28;20031;-76
2022/01/15 07:30:20;;;;;;;33.67;14.98;;;;;;;1.66;66.72;100891.47;5113753;28;20079;-78
2022/01/15 07:32:48;;;;;;;33.65;12.77;;;;;;;1.70;66.43;100892.25;5113815;28;20051;-74
2022/01/15 07:35:15;;;;;;;36.75;13.05;;;;;;;1.70;66.34;100893.09;5109358;28;20171;-76
2022/01/15 07:37:42;;;;;;;37.83;12.68;;;;;;;1.77;66.18;100899.00;5117444;28;20071;-74
2022/01/15 07:40:10;;;;;;;25.45;12.10;;;;;;;1.82;66.25;100896.25;5109363;28;20055;-75
2022/01/15 07:42:40;;;;;;;36.92;13.18;;;;;;;1.84;66.02;100897.09;5107996;28;20122;-74
2022/01/15 07:45:10;;;;;;;26.58;13.02;;;;;;;1.86;65.99;100884.91;5106330;28;20044;-73
2022/01/15 07:47:37;;;;;;;38.35;14.00;;;;;;;1.91;65.93;100893.44;5106735;28;20135;-69
2022/01/15 07:50:05;;;;;;;34.78;16.80;;;;;;;2.00;65.84;100898.41;5104987;28;20483;-73
2022/01/15 07:52:32;;;;;;;27.00;13.82;;;;;;;2.01;65.61;100900.09;5102679;28;20086;-73
2022/01/15 07:55:00;;;;;;;29.95;15.43;;;;;;;2.00;65.72;100897.53;5108075;28;20075;-71
2022/01/15 07:57:27;;;;;;;32.72;11.95;;;;;;;2.11;65.58;100895.50;5103521;28;20040;-70
2022/01/15 07:59:56;;;;;;;37.55;15.93;;;;;;;2.16;64.99;100896.25;5103281;28;20040;-72
2022/01/15 08:02:23;;;;;;;34.08;16.00;;;;;;;2.07;65.48;100886.94;5109920;28;20138;-70
2022/01/15 08:04:50;;;;;;;36.05;15.70;;;;;;;2.07;65.18;100905.16;5109360;28;20509;-73
2022/01/15 08:07:18;;;;;;;28.45;14.32;;;;;;;2.12;65.09;100898.97;5108625;28;20047;-73
2022/01/15 08:09:45;;;;;;;25.83;12.45;;;;;;;2.20;64.89;100890.06;5109625;28;20051;-80
2022/01/15 08:12:12;;;;;;;34.25;17.60;;;;;;;2.17;65.05;100881.47;5109166;28;20130;-70
2022/01/15 08:14:39;;;;;;;32.50;15.20;;;;;;;2.21;64.64;100883.91;5110358;28;20134;-74
2022/01/15 08:17:08;;;;;;;33.60;14.25;;;;;;;2.27;64.79;100890.75;5109039;28;20043;-75
2022/01/15 08:19:38;;;;;;;41.40;18.95;;;;;;;2.24;64.74;100878.63;5103057;28;20674;-71
2022/01/15 08:22:05;;;;;;;29.13;13.35;;;;;;;2.29;64.87;100894.16;5107803;28;20047;-78
2022/01/15 08:24:32;;;;;;;31.17;14.45;;;;;;;2.29;64.67;100894.16;5101451;28;20049;-79
2022/01/15 08:27:00;;;;;;;39.28;18.88;;;;;;;2.30;64.71;100895.84;5106127;28;20072;-72
2022/01/15 08:29:27;;;;;;;39.45;18.42;;;;;;;2.36;64.50;100892.22;5102542;28;20687;-84
2022/01/15 08:31:56;;;;;;;39.38;19.27;;;;;;;2.41;64.01;100885.13;5095436;28;20123;-71
2022/01/15 08:34:25;;;;;;;34.60;16.92;;;;;;;2.44;64.00;100888.50;5090725;28;20097;-78
2022/01/15 08:36:53;;;;;;;34.58;15.35;;;;;;;2.49;64.09;100907.47;5093555;28;20044;-71
2022/01/15 08:39:20;;;;;;;37.70;18.13;;;;;;;2.56;63.57;100904.72;5089490;28;20134;-84
2022/01/15 08:41:48;;;;;;;27.63;15.02;;;;;;;2.48;63.67;100902.28;5096901;28;20250;-75
2022/01/15 08:44:15;;;;;;;31.88;14.25;;;;;;;2.53;63.91;100920.44;5096865;28;20083;-69
2022/01/15 08:46:42;;;;;;;32.67;14.98;;;;;;;2.64;63.49;100918.38;5097366;28;20067;-70
2022/01/15 08:49:10;;;;;;;36.97;14.98;;;;;;;2.65;63.55;100923.53;5095973;28;20285;-71
2022/01/15 08:51:39;;;;;;;38.72;16.20;;;;;;;2.74;63.52;100916.31;5097759;28;20071;-69
2022/01/15 08:54:06;;;;;;;34.50;14.85;;;;;;;2.81;63.04;100917.84;5097391;28;20058;-75
2022/01/15 08:56:33;;;;;;;37.10;18.52;;;;;;;2.88;62.85;100914.16;5094679;28;20500;-75
2022/01/15 08:59:01;;;;;;;38.17;17.20;;;;;;;2.89;62.58;100907.22;5093747;28;20640;-72
2022/01/15 09:01:29;;;;;;;25.88;13.95;;;;;;;2.95;62.68;100909.63;5086923;28;20052;-69
2022/01/15 09:03:57;;;;;;;29.65;12.93;;;;;;;2.99;62.45;100892.97;5086315;28;20048;-75
2022/01/15 09:06:24;;;;;;;31.05;15.20;;;;;;;2.92;62.58;100896.66;5086453;28;20047;-73
2022/01/15 09:08:53;;;;;;;27.05;14.68;;;;;;;2.95;62.38;100901.78;5085829;28;20039;-75
2022/01/15 09:11:20;;;;;;;25.67;14.07;;;;;;;2.97;62.19;100905.22;5085443;28;20151;-77
2022/01/15 09:13:47;;;;;;;22.55;12.02;;;;;;;3.01;62.62;100912.91;5084555;28;20044;-75
2022/01/15 09:16:17;;;;;;;26.48;14.00;;;;;;;3.02;62.11;100911.16;5085541;28;20119;-73
2022/01/15 09:18:44;;;;;;;27.27;13.63;;;;;;;3.06;62.07;100923.19;5082777;28;20127;-70
2022/01/15 09:21:10;;;;;;;34.72;14.80;;;;;;;3.02;62.05;100914.59;5082695;28;20036;-76
2022/01/15 09:23:38;;;;;;;28.25;14.93;;;;;;;3.15;61.92;100920.31;5080754;28;20058;-71
2022/01/15 09:26:18;;;;;;;27.90;13.95;;;;;;;3.23;61.62;100927.91;5083511;28;20058;-72
2022/01/15 09:31:29;;;;;;;21.85;11.82;;;;;;;3.36;61.23;100929.22;5082624;28;20279;-72
2022/01/15 09:33:56;;;;;;;30.77;13.57;;;;;;;3.41;61.26;100935.16;5090821;28;20104;-69
2022/01/15 09:36:23;;;;;;;35.13;14.82;;;;;;;3.45;60.69;100930.69;5088862;28;20725;-71
2022/01/15 09:38:50;;;;;;;31.77;11.18;;;;;;;3.51;60.67;100932.25;5097516;28;20040;-74
2022/01/15 09:41:20;;;;;;;32.65;16.25;;;;;;;3.55;60.54;100928.66;5089845;28;20040;-75
2022/01/15 09:43:47;;;;;;;28.77;14.00;;;;;;;3.62;60.40;100936.22;5090261;28;20128;-65
2022/01/15 09:46:14;;;;;;;25.73;13.48;;;;;;;3.91;59.64;100938.78;5080046;28;20119;-66
2022/01/15 09:48:44;;;;;;;30.08;12.65;;;;;;;3.94;59.06;100925.59;5084272;28;20123;-72
2022/01/15 09:51:11;;;;;;;34.35;16.90;;;;;;;3.79;59.43;100925.22;5092122;28;20044;-70
2022/01/15 09:53:38;;;;;;;30.23;16.95;;;;;;;3.88;59.47;100931.03;5084346;28;20242;-71
2022/01/15 09:56:07;;;;;;;40.80;17.05;;;;;;;4.01;59.10;100930.56;5084391;28;20058;-70
2022/01/15 09:58:37;;;;;;;29.58;16.33;;;;;;;4.01;58.80;100929.72;5079435;28;20127;-67
2022/01/15 10:01:05;;;;;;;33.95;17.38;;;;;;;3.77;59.57;100940.09;5085831;28;20525;-68
2022/01/15 10:03:32;;;;;;;38.10;21.63;;;;;;;3.69;59.73;100954.31;5101106;28;20127;-68
2022/01/15 10:06:04;;;;;;;42.10;19.50;;;;;;;3.79;59.63;100943.50;5099138;28;20131;-67
2022/01/15 10:08:31;;;;;;;37.03;18.52;;;;;;;3.90;59.65;100950.13;5082032;28;20115;-71
2022/01/15 10:11:01;;;;;;;28.25;15.82;;;;;;;3.99;59.39;100960.28;5085344;28;20118;-73
2022/01/15 10:13:28;;;;;;;30.58;16.10;;;;;;;4.15;59.11;100966.69;5097650;28;20105;-72
2022/01/15 10:16:17;;;;;;;35.03;15.95;;;;;;;4.15;59.31;100961.47;5104555;28;20052;-76
2022/01/15 10:18:47;;;;;;;32.80;13.65;;;;;;;4.15;58.99;100947.53;5099201;28;20054;-71
2022/01/15 10:21:15;;;;;;;34.25;16.88;;;;;;;4.09;58.77;100961.69;5100105;28;20047;-71
2022/01/15 10:23:47;;;;;;;35.90;17.98;;;;;;;4.00;58.73;100951.53;5098858;28;20039;-73
2022/01/15 10:26:17;;;;;;;28.80;12.10;;;;;;;4.05;58.96;100970.50;5078836;28;20504;-70
2022/01/15 10:28:57;;;;;;;27.40;12.98;;;;;;;4.09;59.04;100960.81;5080681;28;20213;-72
2022/01/15 10:31:27;;;;;;;32.97;17.58;;;;;;;4.02;58.93;100970.63;5078819;28;20795;-73
2022/01/15 10:33:55;;;;;;;32.38;14.90;;;;;;;4.08;59.05;100965.19;5078887;28;20525;-70
2022/01/15 10:36:23;;;;;;;27.77;15.50;;;;;;;4.11;59.02;100972.09;5080207;28;20079;-72
2022/01/15 10:38:51;;;;;;;30.73;14.32;;;;;;;4.12;59.05;100965.94;5079052;28;20048;-70
2022/01/15 10:41:32;;;;;;;39.08;16.27;;;;;;;4.31;58.93;100972.25;5086916;28;20134;-66
2022/01/15 10:43:59;;;;;;;23.80;13.70;;;;;;;4.27;58.29;100959.31;5102972;28;20384;-72
2022/01/15 10:46:36;;;;;;;28.23;14.57;;;;;;;4.16;58.69;100957.94;5110297;28;20123;-80
2022/01/15 10:49:25;;;;;;;30.73;17.30;;;;;;;4.19;58.56;100952.59;5106543;28;20103;-74
2022/01/15 10:52:07;;;;;;;34.25;18.38;;;;;;;4.11;58.96;100956.41;5102725;28;20044;-82
2022/01/15 10:54:35;;;;;;;36.22;18.70;;;;;;;3.93;59.46;100945.66;5088350;28;20074;-69
2022/01/15 10:57:08;;;;;;;39.38;18.13;;;;;;;3.98;59.05;100942.88;5089108;28;20082;-71
2022/01/15 10:59:36;;;;;;;29.23;14.95;;;;;;;3.98;58.77;100943.75;5094768;28;20040;-73
2022/01/15 11:02:21;;;;;;;29.00;16.45;;;;;;;3.95;59.33;100933.38;5084625;28;20051;-72
2022/01/15 11:04:48;;;;;;;36.70;17.55;;;;;;;4.15;58.91;100931.84;5084483;28;20044;-74
2022/01/15 11:07:17;;;;;;;29.70;16.60;;;;;;;4.09;58.85;100942.50;5084155;28;20718;-72
2022/01/15 11:09:45;;;;;;;21.27;14.77;;;;;;;4.24;58.92;100944.59;5093543;28;20044;-70
2022/01/15 11:12:13;;;;;;;28.83;16.48;;;;;;;4.30;58.69;100948.75;5097629;28;20055;-70
2022/01/15 11:14:41;;;;;;;23.70;15.60;;;;;;;4.39;58.19;100937.97;5090488;28;20578;-72
2022/01/15 11:17:08;;;;;;;26.73;14.57;;;;;;;4.39;58.08;100937.97;5092334;28;20129;-74
2022/01/15 11:19:38;;;;;;;34.42;14.95;;;;;;;4.46;58.24;100934.22;5091510;28;20147;-73
2022/01/15 11:22:05;;;;;;;21.52;10.60;;;;;;;4.60;58.05;100941.56;5092486;28;20047;-71
2022/01/15 11:24:32;;;;;;;29.42;14.68;;;;;;;4.51;57.37;100944.53;5096430;28;20122;-71
2022/01/15 11:27:00;;;;;;;28.17;15.35;;;;;;;4.49;57.82;100948.97;5092722;28;20119;-75
2022/01/15 11:29:28;;;;;;;31.70;17.27;;;;;;;4.45;57.51;100940.38;5094248;28;20043;-70
2022/01/15 11:31:59;;;;;;;28.38;16.23;;;;;;;4.44;57.64;100956.97;5092386;28;20075;-71
2022/01/15 11:34:27;;;;;;;27.75;16.15;;;;;;;4.51;58.09;100957.59;5090393;28;20242;-68
2022/01/15 11:36:56;;;;;;;28.38;14.60;;;;;;;4.54;57.36;100947.88;5097650;28;20079;-75
2022/01/15 11:39:32;;;;;;;34.95;16.35;;;;;;;4.35;57.73;100950.28;5093092;28;20461;-72